createdAt,value
2023-05-05T03:13:29.612Z,99074.28
2023-05-05T03:16:38.446Z,99071.97
2023-05-05T03:19:45.646Z,99069.44
2023-05-05T03:22:51.015Z,99069.44
2023-05-05T03:25:55.369Z,99072.81
2023-05-05T03:29:18.458Z,99074.50
2023-05-05T03:32:27.750Z,99069.66
2023-05-05T03:35:33.180Z,99071.38
2023-05-05T03:38:37.331Z,99066.56
2023-05-05T03:41:42.246Z,99077.56
2023-05-05T03:44:49.531Z,99084.25
2023-05-05T03:47:54.350Z,99074.81
2023-05-05T03:50:58.672Z,99081.59
2023-05-05T03:54:04.931Z,99069.75
2023-05-05T03:57:09.049Z,99072.91
2023-05-05T04:00:28.749Z,99081.63
2023-05-05T04:03:33.032Z,99081.34
2023-05-05T04:06:37.895Z,99079.91
2023-05-05T04:09:44.759Z,99086.47
2023-05-05T04:13:00.655Z,99078.59
2023-05-05T04:16:09.066Z,99082.13
2023-05-05T04:19:15.490Z,99083.06
2023-05-05T04:22:20.808Z,99080.41
2023-05-05T04:25:25.774Z,99088.13
2023-05-05T04:28:34.561Z,99093.63
2023-05-05T04:31:41.017Z,99096.97
2023-05-05T04:34:45.677Z,99094.72
2023-05-05T04:37:50.369Z,99102.50
2023-05-05T04:40:54.726Z,99099.81
2023-05-05T04:44:00.075Z,99112.56
2023-05-05T04:47:06.283Z,99108.56
2023-05-05T04:50:12.838Z,99109.66
2023-05-05T04:53:21.709Z,99106.09
2023-05-05T04:56:26.384Z,99116.59
2023-05-05T04:59:31.708Z,99119.72
2023-05-05T05:02:38.563Z,99119.34
2023-05-05T05:05:42.939Z,99117.50
2023-05-05T05:08:48.131Z,99118.09
2023-05-05T05:11:52.893Z,99114.16
2023-05-05T05:14:59.371Z,99113.59
2023-05-05T05:18:05.426Z,99116.13
2023-05-05T05:21:11.123Z,99116.25
2023-05-05T05:24:16.544Z,99113.25
2023-05-05T05:27:21.600Z,99108.41
2023-05-05T05:30:33.977Z,99110.28
2023-05-05T05:33:43.437Z,99107.22
2023-05-05T05:36:55.956Z,99110.34
2023-05-05T05:40:08.459Z,99112.06
2023-05-05T05:43:15.139Z,99115.69
2023-05-05T05:46:25.369Z,99116.38
2023-05-05T05:49:31.667Z,99119.66
2023-05-05T05:52:37.678Z,99121.94
2023-05-05T05:55:44.081Z,99118.41
2023-05-05T05:58:51.843Z,99119.53
2023-05-05T06:01:57.510Z,99106.13
2023-05-05T06:05:04.745Z,99114.50
2023-05-05T06:08:10.106Z,99120.22
2023-05-05T06:11:20.869Z,99109.50
2023-05-05T06:14:26.029Z,99112.56
2023-05-05T06:17:30.895Z,99110.97
2023-05-05T06:20:36.544Z,99104.63
2023-05-05T06:23:42.320Z,99112.47
2023-05-05T06:26:50.749Z,99110.06
2023-05-05T06:30:01.083Z,99108.47
2023-05-05T06:33:05.846Z,99112.22
2023-05-05T06:36:12.460Z,99109.38
2023-05-05T06:39:17.276Z,99107.91
2023-05-05T06:42:22.069Z,99101.81
2023-05-05T06:45:31.466Z,99099.47
2023-05-05T06:48:36.413Z,99102.84
2023-05-05T06:51:42.936Z,99095.84
2023-05-05T06:54:47.118Z,99092.56
2023-05-05T06:57:51.745Z,99093.44
2023-05-05T07:00:59.687Z,99102.44
2023-05-05T07:04:04.383Z,99096.16
2023-05-05T07:07:10.725Z,99100.38
2023-05-05T07:10:15.354Z,99095.53
2023-05-05T07:13:19.701Z,99094.00
2023-05-05T07:16:25.765Z,99096.13
2023-05-05T07:19:30.206Z,99091.94
2023-05-05T07:22:36.551Z,99088.28
2023-05-05T07:25:40.801Z,99092.50
2023-05-05T07:28:45.245Z,99086.44
2023-05-05T07:31:49.723Z,99083.25
2023-05-05T07:34:54.706Z,99078.88
2023-05-05T07:38:04.215Z,99090.03
2023-05-05T07:41:09.278Z,99094.06
2023-05-05T07:44:13.953Z,99091.75
2023-05-05T07:47:18.821Z,99089.34
2023-05-05T07:50:23.698Z,99083.31
2023-05-05T07:53:34.135Z,99092.31
2023-05-05T07:56:39.085Z,99094.94
2023-05-05T07:59:44.338Z,99084.72
2023-05-05T08:02:52.961Z,99085.59
2023-05-05T08:05:57.848Z,99085.78
2023-05-05T08:09:03.768Z,99078.69
2023-05-05T08:12:08.840Z,99077.47
2023-05-05T08:15:13.863Z,99084.56
2023-05-05T08:18:19.031Z,99082.28
2023-05-05T08:21:24.100Z,99078.94
2023-05-05T08:24:34.244Z,99081.66
2023-05-05T08:27:39.445Z,99088.34
2023-05-05T08:30:44.332Z,99074.94
2023-05-05T08:33:49.688Z,99077.47
2023-05-05T08:36:58.799Z,99072.84
2023-05-05T08:40:05.190Z,99080.78
2023-05-05T08:43:13.788Z,99076.19
2023-05-05T08:46:19.025Z,99071.97
2023-05-05T08:49:27.056Z,99069.69
2023-05-05T08:52:41.067Z,99065.69
2023-05-05T08:55:52.986Z,99067.78
2023-05-05T08:58:59.132Z,99059.81
2023-05-05T09:02:06.597Z,99060.63
2023-05-05T09:05:11.408Z,99059.72
2023-05-05T09:08:16.098Z,99061.03
2023-05-05T09:11:26.003Z,99060.19
2023-05-05T09:14:30.841Z,99078.16
2023-05-05T09:17:35.719Z,99072.69
2023-05-05T09:20:46.658Z,99071.41
2023-05-05T09:24:10.837Z,99062.31
2023-05-05T09:27:25.008Z,99064.34
2023-05-05T09:30:30.508Z,99067.06
2023-05-05T09:33:41.358Z,99058.78
2023-05-05T09:36:48.375Z,99060.06
2023-05-05T09:39:56.698Z,99058.88
2023-05-05T09:43:08.368Z,99056.50
2023-05-05T09:46:13.334Z,99047.75
2023-05-05T09:49:18.953Z,99057.31
2023-05-05T09:52:23.273Z,99062.47
2023-05-05T09:55:27.570Z,99061.03
2023-05-05T09:58:33.862Z,99052.75
2023-05-05T10:01:38.217Z,99061.84
2023-05-05T10:04:42.711Z,99047.19
2023-05-05T10:07:49.371Z,99044.50
2023-05-05T10:10:56.216Z,99034.63
2023-05-05T10:14:03.609Z,99029.00
2023-05-05T10:17:11.720Z,99040.22
2023-05-05T10:20:17.458Z,99050.56
2023-05-05T10:23:25.835Z,99052.13
2023-05-05T10:26:38.479Z,99045.06
2023-05-05T10:29:55.186Z,99027.38
2023-05-05T10:33:27.311Z,99038.50
2023-05-05T10:36:32.107Z,99033.34
2023-05-05T10:39:43.685Z,99033.81
2023-05-05T10:42:50.294Z,99025.13
2023-05-05T10:46:01.592Z,99026.63
2023-05-05T10:49:18.892Z,99018.16
2023-05-05T10:52:34.945Z,99029.16
2023-05-05T10:55:48.073Z,99022.56
2023-05-05T10:58:59.815Z,99024.97
2023-05-05T11:02:21.459Z,99014.63
2023-05-05T11:05:26.215Z,99012.13
2023-05-05T11:08:31.452Z,99021.34
2023-05-05T11:12:08.680Z,99009.16
2023-05-05T11:15:38.968Z,98999.03
2023-05-05T11:18:49.866Z,98998.09
2023-05-05T11:22:04.438Z,99008.00
2023-05-05T11:25:48.343Z,98998.00
2023-05-05T11:29:03.318Z,99003.34
2023-05-05T11:32:16.008Z,98999.50
2023-05-05T11:35:58.650Z,99001.34
2023-05-05T11:39:14.574Z,98998.94
2023-05-05T11:42:31.389Z,99002.44
2023-05-05T11:45:37.588Z,98987.88
2023-05-05T11:48:48.563Z,98992.69
2023-05-05T11:51:59.773Z,98993.47
2023-05-05T11:55:04.877Z,98987.06
2023-05-05T11:58:19.957Z,98984.19
2023-05-05T12:01:24.534Z,98979.59
2023-05-05T12:04:28.986Z,98974.75
2023-05-05T12:07:35.441Z,98981.88
2023-05-05T12:10:39.771Z,98978.69
2023-05-05T12:13:45.054Z,98972.81
2023-05-05T12:17:01.595Z,98972.25
2023-05-05T12:20:07.892Z,98976.78
2023-05-05T12:23:15.095Z,98971.81
2023-05-05T12:26:31.725Z,98980.28
2023-05-05T12:29:36.312Z,98970.47
2023-05-05T12:32:41.671Z,98973.09
2023-05-05T12:35:46.228Z,98957.91
2023-05-05T12:38:52.265Z,98956.88
2023-05-05T12:42:04.906Z,98970.75
2023-05-05T12:45:18.849Z,98956.13
2023-05-05T12:48:27.666Z,98965.94
2023-05-05T12:51:37.904Z,98964.16
2023-05-05T12:54:56.243Z,98959.41
2023-05-05T12:58:02.327Z,98953.59
2023-05-05T13:01:13.164Z,98945.78
2023-05-05T13:04:24.835Z,98944.53
2023-05-05T13:07:29.160Z,98929.22
2023-05-05T13:10:35.534Z,98942.84
2023-05-05T13:13:39.769Z,98938.34
2023-05-05T13:16:50.339Z,98941.19
2023-05-05T13:19:55.336Z,98931.84
2023-05-05T13:23:00.192Z,98928.31
2023-05-05T13:26:06.338Z,98927.84
2023-05-05T13:29:11.395Z,98927.06
2023-05-05T13:32:20.967Z,98924.09
2023-05-05T13:35:25.770Z,98910.44
2023-05-05T13:38:32.495Z,98915.06
2023-05-05T13:41:38.806Z,98914.00
2023-05-05T13:44:43.429Z,98910.47
2023-05-05T13:47:49.353Z,98898.84
2023-05-05T13:50:53.980Z,98901.28
2023-05-05T13:53:58.605Z,98896.50
2023-05-05T13:57:12.717Z,98902.47
2023-05-05T14:00:22.627Z,98897.66
2023-05-05T14:03:27.014Z,98904.31
2023-05-05T14:06:32.726Z,98889.97
2023-05-05T14:09:37.014Z,98899.84
2023-05-05T14:12:44.623Z,98902.78
2023-05-05T14:15:55.028Z,98892.25
2023-05-05T14:19:03.820Z,98896.47
2023-05-05T14:22:10.268Z,98891.78
2023-05-05T14:25:16.930Z,98885.06
2023-05-05T14:28:26.801Z,98894.38
2023-05-05T14:31:31.437Z,98897.25
2023-05-05T14:34:35.997Z,98894.75
2023-05-05T14:37:40.563Z,98892.09
2023-05-05T14:40:45.403Z,98894.28
2023-05-05T14:43:51.685Z,98880.97
2023-05-05T14:46:56.331Z,98894.53
2023-05-05T14:50:00.839Z,98893.09
2023-05-05T14:53:05.434Z,98895.50
2023-05-05T14:56:10.315Z,98890.06
2023-05-05T14:59:16.317Z,98883.16
2023-05-05T15:02:20.951Z,98887.78
2023-05-05T15:05:29.738Z,98888.00
2023-05-05T15:08:34.344Z,98894.88
2023-05-05T15:11:38.835Z,98886.78
2023-05-05T15:14:44.895Z,98884.53
2023-05-05T15:17:49.514Z,98876.84
2023-05-05T15:20:54.660Z,98868.53
2023-05-05T15:23:59.155Z,98870.06
2023-05-05T15:27:04.454Z,98870.94
2023-05-05T15:30:15.675Z,98867.66
2023-05-05T15:33:20.399Z,98866.16
2023-05-05T15:36:28.969Z,98862.50
2023-05-05T15:39:33.755Z,98865.88
2023-05-05T15:42:38.824Z,98868.94
2023-05-05T15:45:44.944Z,98855.66
2023-05-05T15:48:49.456Z,98855.28
2023-05-05T15:51:54.305Z,98861.41
2023-05-05T15:54:58.874Z,98869.47
2023-05-05T15:58:03.460Z,98860.56
2023-05-05T16:01:12.921Z,98862.69
